Ortigueira, Brazil
Current Conditions -  °F | °C
As of 4:00 AM on Monday 22 Dec 2014 (Local Time) from SBLO Reporting Station
Light Rain Light Rain  
Wind Chill: 73°   Ceiling: 300
Heat Index: 73°   Visibility: 5mi
Dew Point: 73°   Wind: 6mph
Humidity: 100%   Direction: 30°NNE
Pressure: 29.83"   Gusts: NA
Location:  24.21°S, 50.95°W
Report Text: SBLO 220600Z 03005KT 8000 -RA SCT002 BKN003 23/23 Q1010
Loading
Personal Weather Stations






























Interactive Weather Map New forecast layout! Learn more

10-Day Weather Forecast

Advertisements
Track Severe Weather on mobile